Birchwood, Wisconsin
Current Conditions -  °F | °C
As of 11:55 AM on Monday 24 Nov 2014 (Local Time) from KRPD Reporting Station
Light Snow Light Snow  
Wind Chill: 16°   Ceiling: 1700
Heat Index: 28°   Visibility: 1.5mi
Dew Point: 24°   Wind: 15mph
Humidity: 86%   Direction: 290°WNW
Pressure: 29.32"   Gusts: 25mph
Location:  45.67°N, 91.56°W
Report Text: KRPD 241755Z AUTO 29013G22KT 1 1/2SM -SN OVC017 M02/M04 A2932 RMK AO2 T10251045 10010 21025
Loading
Personal Weather Stations






























Interactive Weather Map New forecast layout! Learn more

10-Day Weather Forecast

Advertisements
Track Severe Weather on mobile